Time;durP1;ratioP1;P1;durP2;ratioP2;P2;SDS_P1;SDS_P2;PMS_P1;PMS_P2;Temp;Humidity;BMP_temperature;BMP_pressure;BME280_temperature;BME280_humidity;BME280_pressure;Samples;Min_cycle;Max_cycle;Signal;HPM_P1;HPM_P2
2021/12/21 00:02:24;;;;;;;3.40;3.20;;;17.40;62.90;;;;;;5034932;28;20376;-31
2021/12/21 00:04:49;;;;;;;3.17;2.97;;;17.40;62.80;;;;;;5026151;28;20136;-27
2021/12/21 00:07:15;;;;;;;3.25;3.05;;;17.40;62.70;;;;;;5035200;28;20037;-28
2021/12/21 00:09:40;;;;;;;3.25;3.05;;;17.40;62.70;;;;;;5036410;28;20117;-28
2021/12/21 00:12:07;;;;;;;2.85;2.75;;;17.40;62.80;;;;;;5036688;28;20086;-30
2021/12/21 00:14:48;;;;;;;3.30;3.10;;;17.30;62.70;;;;;;5034321;28;20048;-35
2021/12/21 00:17:43;;;;;;;2.88;2.78;;;17.30;62.70;;;;;;5030988;28;20045;-27
2021/12/21 00:25:21;;;;;;;2.63;2.50;;;17.30;62.60;;;;;;5035742;28;20057;-30
2021/12/21 00:27:49;;;;;;;3.20;3.00;;;17.30;62.50;;;;;;5034769;28;20598;-27
2021/12/21 00:30:14;;;;;;;2.90;2.78;;;17.30;62.50;;;;;;5033286;28;20038;-28
2021/12/21 00:32:40;;;;;;;3.00;2.80;;;17.30;62.50;;;;;;5034849;28;20045;-27
2021/12/21 00:35:06;;;;;;;2.72;2.63;;;17.30;62.40;;;;;;5035954;28;20037;-25
2021/12/21 00:37:32;;;;;;;3.00;2.80;;;17.30;62.30;;;;;;5032361;28;20053;-34
2021/12/21 00:39:58;;;;;;;3.30;3.10;;;17.30;62.30;;;;;;5024680;28;20045;-29
2021/12/21 00:42:23;;;;;;;2.90;2.80;;;17.30;62.20;;;;;;5022042;28;20060;-26
2021/12/21 00:44:49;;;;;;;3.22;3.13;;;17.30;62.20;;;;;;5028637;28;20113;-28
2021/12/21 00:47:16;;;;;;;2.83;2.72;;;17.20;62.20;;;;;;5023076;28;20129;-26
2021/12/21 00:49:46;;;;;;;2.95;2.75;;;17.30;62.10;;;;;;5033474;28;20049;-25
2021/12/21 00:52:13;;;;;;;2.80;2.60;;;17.30;62.00;;;;;;5034372;28;20095;-30
2021/12/21 00:54:38;;;;;;;2.70;2.60;;;17.30;61.90;;;;;;5031599;28;20517;-25
2021/12/21 00:57:04;;;;;;;2.67;2.58;;;17.30;62.30;;;;;;5035198;28;20041;-28
2021/12/21 00:59:33;;;;;;;2.88;2.67;;;17.30;62.50;;;;;;5034597;28;20506;-25
2021/12/21 01:01:59;;;;;;;2.58;2.47;;;17.30;62.50;;;;;;5032506;28;20045;-37
2021/12/21 01:04:31;;;;;;;2.63;2.53;;;17.20;62.40;;;;;;5023277;28;20048;-29
2021/12/21 01:12:08;;;;;;;2.60;2.50;;;17.20;62.20;;;;;;5035201;28;20044;-27
2021/12/21 01:17:48;;;;;;;2.20;2.10;;;17.20;62.20;;;;;;5021565;28;20081;-30
2021/12/21 01:20:28;;;;;;;2.25;2.15;;;17.20;62.00;;;;;;5032923;28;20046;-27
2021/12/21 01:23:23;;;;;;;2.10;2.00;;;17.20;62.10;;;;;;5034839;28;20084;-31
2021/12/21 01:28:30;;;;;;;2.80;2.60;;;17.10;61.90;;;;;;5033495;28;20072;-22
2021/12/21 01:31:46;;;;;;;2.22;2.13;;;17.20;62.00;;;;;;5028074;28;20519;-28
2021/12/21 01:36:25;;;;;;;2.05;1.95;;;17.20;61.70;;;;;;5032156;28;20130;-25
2021/12/21 01:39:13;;;;;;;2.15;2.05;;;17.10;61.90;;;;;;5041556;28;20049;-27
2021/12/21 01:42:04;;;;;;;2.20;2.10;;;17.10;61.70;;;;;;5037076;28;20042;-27
2021/12/21 01:49:32;;;;;;;2.10;2.00;;;17.20;61.70;;;;;;5024702;28;20096;-26
2021/12/21 01:49:56;;;;;;;2.47;2.38;;;17.10;61.60;;;;;;5021233;28;20104;-29
2021/12/21 01:52:24;;;;;;;2.35;2.25;;;17.20;61.50;;;;;;5024047;28;20487;-27
2021/12/21 01:54:50;;;;;;;1.90;1.80;;;17.10;61.50;;;;;;5019441;28;20050;-28
2021/12/21 01:57:16;;;;;;;2.10;2.00;;;17.10;61.30;;;;;;5015542;28;20042;-25
2021/12/21 01:59:43;;;;;;;2.47;2.38;;;17.10;61.40;;;;;;5024121;28;20115;-29
2021/12/21 02:02:09;;;;;;;1.92;1.83;;;17.10;61.60;;;;;;5033724;28;20037;-23
2021/12/21 02:04:36;;;;;;;2.20;2.10;;;17.00;61.50;;;;;;5032953;28;20050;-30
2021/12/21 02:07:02;;;;;;;1.73;1.63;;;17.00;61.50;;;;;;5021888;28;20434;-25
2021/12/21 02:09:37;;;;;;;2.30;2.20;;;17.00;61.60;;;;;;5029949;28;20137;-25
2021/12/21 02:12:06;;;;;;;1.90;1.80;;;17.10;61.40;;;;;;5030544;28;20065;-28
2021/12/21 02:14:32;;;;;;;2.30;2.20;;;17.10;61.30;;;;;;5021356;28;20108;-26
2021/12/21 02:19:40;;;;;;;2.20;2.10;;;17.10;61.50;;;;;;5023591;28;20125;-27
2021/12/21 02:22:11;;;;;;;2.30;2.20;;;17.10;61.10;;;;;;5034590;28;20033;-26
2021/12/21 02:24:49;;;;;;;2.33;2.00;;;17.10;61.10;;;;;;5030076;28;20074;-23
2021/12/21 02:27:26;;;;;;;2.13;2.03;;;17.10;61.20;;;;;;5019902;28;20157;-26
2021/12/21 02:29:52;;;;;;;1.70;1.60;;;17.10;61.10;;;;;;5021016;28;20053;-31
2021/12/21 02:32:18;;;;;;;2.10;2.00;;;17.10;61.20;;;;;;5014996;28;20046;-29
2021/12/21 02:34:44;;;;;;;2.00;1.90;;;17.10;61.00;;;;;;5013715;28;20053;-23
2021/12/21 02:37:10;;;;;;;2.08;1.98;;;17.10;61.00;;;;;;5015125;28;20038;-28
2021/12/21 02:39:36;;;;;;;2.10;2.00;;;17.10;60.90;;;;;;5024459;28;20041;-23
2021/12/21 02:42:02;;;;;;;2.13;2.03;;;17.00;61.00;;;;;;5031950;28;20045;-24
2021/12/21 02:44:27;;;;;;;2.10;2.00;;;17.10;61.10;;;;;;5022615;28;20046;-26
2021/12/21 02:46:53;;;;;;;2.10;2.00;;;17.00;61.00;;;;;;5030279;28;20073;-28
2021/12/21 02:49:19;;;;;;;2.50;2.40;;;17.00;61.10;;;;;;5023623;28;20050;-25
2021/12/21 02:51:45;;;;;;;2.20;2.10;;;17.00;60.90;;;;;;5033545;28;20410;-29
2021/12/21 02:54:11;;;;;;;2.33;2.22;;;17.00;60.90;;;;;;5034693;28;20046;-26
2021/12/21 02:56:36;;;;;;;2.22;1.92;;;17.00;60.90;;;;;;5035250;28;20041;-26
2021/12/21 02:59:03;;;;;;;1.50;1.50;;;17.00;60.90;;;;;;5025403;28;20068;-27
2021/12/21 03:01:29;;;;;;;1.90;1.80;;;17.00;60.80;;;;;;5024471;28;20836;-29
2021/12/21 03:03:55;;;;;;;1.88;1.77;;;17.00;60.90;;;;;;5028175;28;20048;-32
2021/12/21 03:07:16;;;;;;;2.08;1.98;;;16.90;61.00;;;;;;5037409;28;20493;-27
2021/12/21 03:11:57;;;;;;;2.00;1.90;;;17.00;60.70;;;;;;5036921;28;20068;-25
2021/12/21 03:14:25;;;;;;;2.00;1.90;;;17.00;60.90;;;;;;5037016;28;20595;-30
2021/12/21 03:16:52;;;;;;;1.92;1.83;;;17.00;60.80;;;;;;5035969;28;20065;-25
2021/12/21 03:19:17;;;;;;;2.10;2.00;;;17.00;60.80;;;;;;5036135;28;20068;-27
2021/12/21 03:21:43;;;;;;;1.95;1.85;;;16.90;60.80;;;;;;5036115;28;20042;-27
2021/12/21 03:24:09;;;;;;;1.95;1.83;;;17.00;61.60;;;;;;5037151;28;20045;-28
2021/12/21 03:26:35;;;;;;;2.17;2.08;;;16.90;60.90;;;;;;5036862;28;20049;-25
2021/12/21 03:29:01;;;;;;;2.10;2.00;;;16.90;60.80;;;;;;5037428;28;20045;-27
2021/12/21 03:31:27;;;;;;;2.20;2.10;;;16.80;61.00;;;;;;5035004;28;20099;-25
2021/12/21 03:33:52;;;;;;;2.03;1.92;;;16.80;61.00;;;;;;5029681;28;20052;-26
2021/12/21 03:36:18;;;;;;;1.60;1.50;;;16.80;60.90;;;;;;5030459;28;20140;-26
2021/12/21 03:38:57;;;;;;;2.15;2.05;;;16.90;60.90;;;;;;5016827;28;20050;-24
2021/12/21 03:41:23;;;;;;;1.85;1.75;;;16.90;61.00;;;;;;5036464;28;20045;-24
2021/12/21 03:43:49;;;;;;;1.70;1.60;;;16.80;60.90;;;;;;5036333;28;20049;-31
2021/12/21 03:46:15;;;;;;;1.90;1.80;;;16.90;60.90;;;;;;5037278;28;20410;-31
2021/12/21 03:48:44;;;;;;;1.70;1.60;;;16.80;60.80;;;;;;5032018;28;20107;-28
2021/12/21 03:51:10;;;;;;;1.88;1.77;;;16.80;60.80;;;;;;5017124;28;20113;-26
2021/12/21 03:53:35;;;;;;;1.98;1.88;;;16.90;60.90;;;;;;5031545;28;20572;-28
2021/12/21 03:58:36;;;;;;;1.63;1.52;;;16.80;60.80;;;;;;5024541;28;20549;-26
2021/12/21 04:01:02;;;;;;;1.33;1.33;;;16.80;60.80;;;;;;5035298;28;20045;-30
2021/12/21 04:03:27;;;;;;;1.83;1.73;;;16.80;60.90;;;;;;5029970;28;20041;-26
2021/12/21 04:05:53;;;;;;;1.83;1.75;;;16.80;60.80;;;;;;5035456;28;20045;-26
2021/12/21 04:08:18;;;;;;;1.88;1.77;;;16.80;60.90;;;;;;5035313;28;20038;-25
2021/12/21 04:10:44;;;;;;;1.80;1.70;;;16.70;60.90;;;;;;5035874;28;20050;-27
2021/12/21 04:13:10;;;;;;;1.55;1.48;;;16.70;60.90;;;;;;5036394;28;20080;-24
2021/12/21 04:15:43;;;;;;;1.70;1.60;;;16.70;60.90;;;;;;5036070;28;20072;-27
2021/12/21 04:18:12;;;;;;;1.70;1.60;;;16.70;60.90;;;;;;5034088;28;20521;-25
2021/12/21 04:20:38;;;;;;;1.77;1.67;;;16.70;60.80;;;;;;5024424;28;20050;-25
2021/12/21 04:23:04;;;;;;;1.50;1.50;;;16.70;60.80;;;;;;5024535;28;20049;-29
2021/12/21 04:25:30;;;;;;;1.70;1.60;;;16.70;60.70;;;;;;5026820;28;20049;-29
2021/12/21 04:27:55;;;;;;;1.75;1.65;;;16.70;60.80;;;;;;5033544;28;20045;-27
2021/12/21 04:30:21;;;;;;;1.70;1.60;;;16.70;60.80;;;;;;5016729;28;20080;-26
2021/12/21 04:32:46;;;;;;;1.80;1.70;;;16.70;60.70;;;;;;5015662;28;20069;-28
2021/12/21 04:35:15;;;;;;;2.10;2.00;;;16.70;60.70;;;;;;5016267;28;20495;-31
2021/12/21 04:37:45;;;;;;;1.60;1.55;;;16.70;60.60;;;;;;5028460;28;20045;-26
2021/12/21 04:40:16;;;;;;;1.52;1.52;;;16.80;60.60;;;;;;5023366;28;20069;-31
2021/12/21 04:42:41;;;;;;;1.77;1.67;;;16.70;60.60;;;;;;5024948;28;20046;-29
2021/12/21 04:45:07;;;;;;;1.83;1.73;;;16.70;60.80;;;;;;5030760;28;20052;-27
2021/12/21 04:47:33;;;;;;;1.67;1.67;;;16.70;60.60;;;;;;5015737;28;20494;-31
2021/12/21 04:49:59;;;;;;;1.70;1.60;;;16.70;60.70;;;;;;5029329;28;20054;-26
2021/12/21 04:52:24;;;;;;;1.73;1.65;;;16.70;60.70;;;;;;5035216;28;20061;-24
2021/12/21 04:54:50;;;;;;;1.40;1.40;;;16.70;60.60;;;;;;5035334;28;20172;-27
2021/12/21 04:57:15;;;;;;;1.30;1.30;;;16.70;60.50;;;;;;5018952;28;20037;-25
2021/12/21 04:59:41;;;;;;;1.70;1.60;;;16.70;60.60;;;;;;5025925;28;20121;-27
2021/12/21 05:02:07;;;;;;;1.20;1.20;;;16.70;60.60;;;;;;5034439;28;20073;-25
2021/12/21 05:04:32;;;;;;;1.60;1.60;;;16.70;60.50;;;;;;5020718;28;20550;-24
2021/12/21 05:06:58;;;;;;;1.52;1.52;;;16.60;60.60;;;;;;5023426;28;20136;-32
2021/12/21 05:09:29;;;;;;;1.63;1.60;;;16.60;60.60;;;;;;5022738;28;20077;-31
2021/12/21 05:12:01;;;;;;;1.80;1.70;;;16.60;60.60;;;;;;5015060;28;20495;-22
2021/12/21 05:14:28;;;;;;;1.40;1.40;;;16.60;60.50;;;;;;5016019;28;20430;-26
2021/12/21 05:16:54;;;;;;;1.33;1.33;;;16.70;60.50;;;;;;5030291;28;20038;-25
2021/12/21 05:19:19;;;;;;;1.58;1.58;;;16.60;60.60;;;;;;5024402;28;20099;-23
2021/12/21 05:21:45;;;;;;;1.77;1.67;;;16.60;60.70;;;;;;5026680;28;20045;-26
2021/12/21 05:24:10;;;;;;;1.35;1.35;;;16.60;60.60;;;;;;5035267;28;20041;-27
2021/12/21 05:26:37;;;;;;;1.20;1.20;;;16.60;60.70;;;;;;5029162;28;20029;-22
2021/12/21 05:29:03;;;;;;;1.35;1.35;;;16.60;60.60;;;;;;5028390;28;20044;-27
2021/12/21 05:31:29;;;;;;;1.48;1.48;;;16.60;60.60;;;;;;5022146;28;20091;-24
2021/12/21 05:33:55;;;;;;;1.40;1.40;;;16.60;60.60;;;;;;5034210;28;20053;-29
2021/12/21 05:36:21;;;;;;;1.40;1.40;;;16.60;60.70;;;;;;5034890;28;20037;-28
2021/12/21 05:38:51;;;;;;;1.60;1.50;;;16.60;60.60;;;;;;5023394;28;20057;-26
2021/12/21 05:41:29;;;;;;;1.27;1.27;;;16.60;60.60;;;;;;5015548;28;20042;-24
2021/12/21 05:43:55;;;;;;;1.42;1.42;;;16.60;60.60;;;;;;5020016;28;20132;-28
2021/12/21 05:46:21;;;;;;;1.50;1.50;;;16.50;60.50;;;;;;5034006;28;20075;-27
2021/12/21 05:48:51;;;;;;;1.35;1.35;;;16.60;60.60;;;;;;5033861;28;20057;-25
2021/12/21 05:51:17;;;;;;;1.55;1.45;;;16.60;60.50;;;;;;5019468;28;20034;-25
2021/12/21 05:53:43;;;;;;;1.45;1.45;;;16.60;60.40;;;;;;5030455;28;20092;-23
2021/12/21 05:56:08;;;;;;;1.50;1.40;;;16.60;60.30;;;;;;5035134;28;20497;-25
2021/12/21 05:58:34;;;;;;;1.35;1.35;;;16.50;60.50;;;;;;5034510;28;20076;-27
2021/12/21 06:01:00;;;;;;;1.40;1.40;;;16.50;60.50;;;;;;5035031;28;20076;-27
2021/12/21 06:03:26;;;;;;;1.63;1.63;;;16.50;60.50;;;;;;5031715;28;20053;-38
2021/12/21 06:05:51;;;;;;;1.20;1.20;;;16.50;60.90;;;;;;5022975;28;20059;-27
2021/12/21 06:08:20;;;;;;;1.23;1.23;;;16.60;61.40;;;;;;5028861;28;20125;-38
2021/12/21 06:10:47;;;;;;;1.70;1.60;;;16.60;61.20;;;;;;5027707;28;20037;-22
2021/12/21 06:26:08;;;;;;;1.50;1.40;;;16.50;61.40;;;;;;5037000;28;20091;-28
2021/12/21 06:28:34;;;;;;;1.38;1.38;;;16.60;61.40;;;;;;5039047;28;20041;-24
2021/12/21 06:31:00;;;;;;;1.80;1.70;;;16.50;61.40;;;;;;5043926;28;20049;-32
2021/12/21 06:33:25;;;;;;;1.60;1.50;;;16.50;61.30;;;;;;5041875;28;20068;-29
2021/12/21 06:35:51;;;;;;;1.50;1.50;;;16.60;61.20;;;;;;5045290;28;20520;-30
2021/12/21 06:38:17;;;;;;;1.50;1.50;;;16.50;61.30;;;;;;5037267;28;20124;-28
2021/12/21 06:40:43;;;;;;;1.65;1.55;;;16.50;61.30;;;;;;5034146;28;20053;-24
2021/12/21 06:43:13;;;;;;;1.40;1.30;;;16.50;62.10;;;;;;5032325;28;20044;-37
2021/12/21 06:53:35;;;;;;;1.20;1.20;;;16.50;61.20;;;;;;5027869;28;20068;-33
2021/12/21 06:56:01;;;;;;;1.58;1.50;;;16.50;61.20;;;;;;5036967;28;20411;-26
2021/12/21 06:58:27;;;;;;;1.30;1.30;;;16.50;61.00;;;;;;5041995;28;20044;-30
2021/12/21 07:00:53;;;;;;;1.42;1.33;;;16.50;61.00;;;;;;5040712;28;20594;-32
2021/12/21 07:03:19;;;;;;;1.20;1.20;;;16.50;60.90;;;;;;5044520;28;20037;-29
2021/12/21 07:05:46;;;;;;;1.70;1.60;;;16.50;61.10;;;;;;5033747;28;20583;-27
2021/12/21 07:08:15;;;;;;;1.33;1.33;;;16.50;61.00;;;;;;5023885;28;20053;-25
2021/12/21 07:10:49;;;;;;;1.10;1.10;;;16.50;61.00;;;;;;5044427;28;20045;-29
2021/12/21 07:18:43;;;;;;;1.48;1.38;;;16.50;60.80;;;;;;5049082;28;20084;-28
2021/12/21 07:21:09;;;;;;;1.40;1.30;;;16.40;60.80;;;;;;5033661;28;20459;-27
2021/12/21 07:23:34;;;;;;;1.30;1.30;;;16.50;60.90;;;;;;5044727;28;20129;-30
2021/12/21 07:26:00;;;;;;;1.27;1.27;;;16.50;60.70;;;;;;5030912;28;20046;-27
2021/12/21 07:28:26;;;;;;;1.20;1.20;;;16.50;60.80;;;;;;5033284;28;20139;-28
2021/12/21 07:30:51;;;;;;;1.38;1.38;;;16.40;60.80;;;;;;5034748;28;20542;-26
2021/12/21 07:33:18;;;;;;;1.40;1.40;;;16.40;60.70;;;;;;5033270;28;20457;-26
2021/12/21 07:35:43;;;;;;;1.20;1.20;;;16.50;60.80;;;;;;5040348;28;20506;-30
2021/12/21 07:38:10;;;;;;;1.60;1.50;;;16.40;60.70;;;;;;5044592;28;20113;-31
2021/12/21 07:40:36;;;;;;;1.58;1.48;;;16.50;60.80;;;;;;5045040;28;20425;-22
2021/12/21 07:43:02;;;;;;;1.35;1.35;;;16.40;60.60;;;;;;5036235;28;20041;-28
2021/12/21 07:45:27;;;;;;;1.20;1.17;;;16.50;60.60;;;;;;5043994;28;20069;-24
2021/12/21 07:47:53;;;;;;;1.30;1.30;;;16.40;60.60;;;;;;5031960;28;20506;-25
2021/12/21 07:50:20;;;;;;;1.80;1.70;;;16.40;60.70;;;;;;5044720;28;20080;-28
2021/12/21 07:52:46;;;;;;;1.58;1.48;;;16.40;60.70;;;;;;5034613;28;20045;-25
2021/12/21 07:55:11;;;;;;;2.28;1.48;;;16.40;60.70;;;;;;5029555;28;20528;-26
2021/12/21 07:57:37;;;;;;;1.70;1.60;;;16.40;60.70;;;;;;5036973;28;20033;-27
2021/12/21 08:00:05;;;;;;;1.60;1.52;;;16.40;60.70;;;;;;5035892;28;20067;-24
2021/12/21 08:02:31;;;;;;;1.23;1.23;;;16.50;60.40;;;;;;5035365;28;20041;-24
2021/12/21 08:04:57;;;;;;;1.50;1.40;;;16.40;60.40;;;;;;5035351;28;20037;-28
2021/12/21 08:07:29;;;;;;;1.85;1.75;;;16.40;60.60;;;;;;5036296;28;20060;-26
2021/12/21 08:09:55;;;;;;;1.42;1.42;;;16.40;60.90;;;;;;5034785;28;20367;-33
2021/12/21 08:12:21;;;;;;;2.25;1.50;;;16.40;60.80;;;;;;5029945;28;20052;-27
2021/12/21 08:14:48;;;;;;;1.55;1.35;;;16.40;61.10;;;;;;5028869;28;20065;-24
2021/12/21 08:17:14;;;;;;;2.35;1.38;;;16.50;60.90;;;;;;5039040;28;20038;-32
2021/12/21 08:19:40;;;;;;;1.83;1.70;;;16.40;61.10;;;;;;5035179;28;20072;-26
2021/12/21 08:22:06;;;;;;;1.48;1.38;;;16.40;61.40;;;;;;5030674;28;20109;-22
2021/12/21 08:24:33;;;;;;;2.80;1.23;;;16.40;61.20;;;;;;5016402;28;20045;-27
2021/12/21 08:26:59;;;;;;;1.45;1.35;;;16.40;61.30;;;;;;5027606;28;20064;-29
2021/12/21 08:29:28;;;;;;;2.25;1.60;;;16.40;61.20;;;;;;5035956;28;20104;-28
2021/12/21 08:31:53;;;;;;;1.63;1.58;;;16.40;61.30;;;;;;5035715;28;20132;-26
2021/12/21 08:34:20;;;;;;;1.67;1.60;;;16.40;61.10;;;;;;5035103;28;20073;-28
2021/12/21 08:36:46;;;;;;;1.58;1.48;;;16.40;62.10;;;;;;5031983;28;20053;-30
2021/12/21 08:39:11;;;;;;;1.80;1.70;;;16.40;61.60;;;;;;5023963;28;20045;-30
2021/12/21 08:41:42;;;;;;;2.67;1.50;;;16.40;61.50;;;;;;5036113;28;20046;-27
2021/12/21 08:44:10;;;;;;;1.52;1.42;;;16.40;61.60;;;;;;5034488;28;20611;-31
2021/12/21 08:46:36;;;;;;;1.90;1.80;;;16.40;61.50;;;;;;5035856;28;20069;-29
2021/12/21 08:49:02;;;;;;;1.60;1.50;;;16.40;61.50;;;;;;5027943;28;20057;-28
2021/12/21 08:51:27;;;;;;;1.67;1.58;;;16.40;61.40;;;;;;5025034;28;20036;-28
2021/12/21 08:53:53;;;;;;;1.67;1.58;;;16.40;61.20;;;;;;5033365;28;20048;-26
2021/12/21 08:56:19;;;;;;;1.75;1.65;;;16.40;61.40;;;;;;5029180;28;20042;-29
2021/12/21 08:58:44;;;;;;;1.52;1.42;;;16.40;61.10;;;;;;5018266;28;20052;-23
2021/12/21 09:01:10;;;;;;;1.58;1.50;;;16.40;61.20;;;;;;5033220;28;20917;-28
2021/12/21 09:03:36;;;;;;;1.70;1.60;;;16.40;61.30;;;;;;5028845;28;20053;-25
2021/12/21 09:06:01;;;;;;;1.83;1.50;;;16.40;61.30;;;;;;5018799;28;20042;-27
2021/12/21 09:08:27;;;;;;;1.80;1.70;;;16.40;61.10;;;;;;5035719;28;20056;-23
2021/12/21 09:10:53;;;;;;;1.92;1.70;;;16.40;61.10;;;;;;5034190;28;20068;-27
2021/12/21 09:13:19;;;;;;;1.90;1.80;;;16.50;61.10;;;;;;5035302;28;20558;-32
2021/12/21 09:15:45;;;;;;;1.67;1.55;;;16.40;61.10;;;;;;5035049;28;20095;-24
2021/12/21 09:18:10;;;;;;;1.90;1.80;;;16.50;61.10;;;;;;5035393;28;20046;-27
2021/12/21 09:20:36;;;;;;;2.55;1.60;;;16.40;61.10;;;;;;5033143;28;20052;-27
2021/12/21 09:23:02;;;;;;;1.98;1.88;;;16.40;61.10;;;;;;5031526;28;20069;-29
2021/12/21 09:25:27;;;;;;;1.90;1.80;;;16.40;61.10;;;;;;5022626;28;20081;-26
2021/12/21 09:27:53;;;;;;;3.20;2.00;;;16.40;61.10;;;;;;5021771;28;20045;-32
2021/12/21 09:30:20;;;;;;;1.92;1.83;;;16.50;61.00;;;;;;5025493;28;20072;-29
2021/12/21 09:32:45;;;;;;;1.73;1.63;;;16.50;61.00;;;;;;5024260;28;20521;-30
2021/12/21 09:35:11;;;;;;;1.90;1.77;;;16.50;60.90;;;;;;5037294;28;20045;-30
2021/12/21 09:37:38;;;;;;;1.77;1.67;;;16.50;60.90;;;;;;5034936;28;20117;-27
2021/12/21 09:40:06;;;;;;;1.38;1.38;;;16.50;60.90;;;;;;5022834;28;20502;-25
2021/12/21 09:42:31;;;;;;;1.80;1.70;;;16.50;60.90;;;;;;5032981;28;20080;-27
2021/12/21 09:44:57;;;;;;;1.25;1.23;;;16.50;60.90;;;;;;5031639;28;20049;-27
2021/12/21 09:47:23;;;;;;;1.83;1.40;;;16.50;60.80;;;;;;5033757;28;20051;-27
2021/12/21 09:49:49;;;;;;;1.38;1.25;;;16.60;60.80;;;;;;5031663;28;20049;-25
2021/12/21 09:52:18;;;;;;;1.02;1.02;;;16.60;61.20;;;;;;5024139;28;20072;-28
2021/12/21 09:54:44;;;;;;;1.60;1.50;;;16.60;62.10;;;;;;5033404;28;20052;-29
2021/12/21 09:57:09;;;;;;;1.08;1.08;;;16.70;61.80;;;;;;5026215;28;20038;-27
2021/12/21 09:59:35;;;;;;;1.42;1.33;;;16.70;61.90;;;;;;5033134;28;20409;-28
2021/12/21 10:02:02;;;;;;;1.10;1.10;;;16.70;61.70;;;;;;5032983;28;20037;-31
2021/12/21 10:04:28;;;;;;;1.48;1.10;;;16.80;61.80;;;;;;5034549;28;20454;-29
2021/12/21 10:06:55;;;;;;;1.60;1.50;;;16.80;61.80;;;;;;5038494;28;20049;-26
2021/12/21 10:09:24;;;;;;;1.48;1.38;;;16.70;61.90;;;;;;5037355;28;20049;-25
2021/12/21 10:11:50;;;;;;;2.65;1.60;;;16.80;62.10;;;;;;5029988;28;20133;-26
2021/12/21 10:14:16;;;;;;;4.05;1.60;;;16.90;61.90;;;;;;5029009;28;20050;-24
2021/12/21 10:16:43;;;;;;;1.60;1.45;;;16.80;61.80;;;;;;5035011;28;20099;-26
2021/12/21 10:19:19;;;;;;;2.85;1.40;;;16.90;61.90;;;;;;5042765;28;20049;-26
2021/12/21 10:21:45;;;;;;;1.63;1.50;;;16.90;62.00;;;;;;5034460;28;20049;-23
2021/12/21 10:24:24;;;;;;;1.85;1.67;;;16.90;61.90;;;;;;5048763;28;20450;-24
2021/12/21 10:26:52;;;;;;;4.72;1.95;;;16.90;61.90;;;;;;5030881;28;20060;-27
2021/12/21 10:29:18;;;;;;;2.40;1.58;;;16.90;62.00;;;;;;5031266;28;20038;-26
2021/12/21 10:31:48;;;;;;;2.50;1.50;;;16.90;62.20;;;;;;5033854;28;20050;-23
2021/12/21 10:34:15;;;;;;;2.17;1.42;;;16.90;61.90;;;;;;5033337;28;20053;-26
2021/12/21 10:36:52;;;;;;;2.10;1.90;;;16.90;62.00;;;;;;5031990;28;20419;-30
2021/12/21 10:39:26;;;;;;;1.80;1.70;;;16.90;62.40;;;;;;5026933;28;20406;-28
2021/12/21 10:41:56;;;;;;;2.15;2.05;;;17.00;62.20;;;;;;5033624;28;20129;-28
2021/12/21 10:44:21;;;;;;;3.55;1.65;;;16.90;61.90;;;;;;5029957;28;20050;-29
2021/12/21 10:46:49;;;;;;;6.82;2.08;;;17.00;61.70;;;;;;5031925;28;20414;-27
2021/12/21 10:49:18;;;;;;;2.70;1.50;;;17.00;62.00;;;;;;5031552;28;20045;-24
2021/12/21 10:52:05;;;;;;;1.65;1.60;;;17.00;61.70;;;;;;5034086;28;20041;-27
2021/12/21 10:54:39;;;;;;;2.60;1.90;;;17.00;61.50;;;;;;5032491;28;20124;-28
2021/12/21 10:57:31;;;;;;;2.40;1.73;;;17.00;61.60;;;;;;5033268;28;20033;-25
2021/12/21 10:59:59;;;;;;;2.53;1.60;;;17.00;61.70;;;;;;5032638;28;20049;-22
2021/12/21 11:02:29;;;;;;;1.90;1.80;;;17.00;61.50;;;;;;5033776;28;20534;-33
2021/12/21 11:05:15;;;;;;;1.50;1.40;;;17.00;61.60;;;;;;5032827;28;20049;-27
2021/12/21 11:10:15;;;;;;;2.35;1.52;;;17.10;61.80;;;;;;5033254;28;20037;-26
2021/12/21 11:12:48;;;;;;;3.00;1.40;;;17.10;61.40;;;;;;4685575;28;9999914;-31
2021/12/21 11:15:22;;;;;;;1.40;1.30;;;17.10;61.80;;;;;;5037347;28;20057;-25
2021/12/21 11:17:47;;;;;;;1.60;1.50;;;17.10;61.90;;;;;;5025825;28;20056;-26
2021/12/21 11:20:14;;;;;;;2.60;1.25;;;17.10;61.80;;;;;;5047371;28;20503;-25
2021/12/21 11:22:41;;;;;;;1.67;1.50;;;17.10;61.50;;;;;;5032868;28;20187;-32
2021/12/21 11:25:07;;;;;;;1.30;1.20;;;17.10;61.70;;;;;;5032365;28;20101;-29
2021/12/21 11:27:34;;;;;;;1.90;1.40;;;17.20;61.20;;;;;;5033185;28;20044;-25
2021/12/21 11:30:03;;;;;;;2.47;1.45;;;17.20;61.50;;;;;;5048265;28;20518;-32
2021/12/21 11:32:30;;;;;;;1.42;1.38;;;17.20;61.00;;;;;;5033699;28;20037;-29
2021/12/21 11:37:20;;;;;;;2.22;1.13;;;17.30;60.90;;;;;;5047744;28;20561;-25
2021/12/21 11:37:44;;;;;;;1.38;1.27;;;17.30;61.00;;;;;;5046101;28;20041;-26
2021/12/21 11:40:12;;;;;;;1.30;1.30;;;17.30;61.00;;;;;;5032686;28;20390;-29
2021/12/21 11:42:53;;;;;;;1.52;1.42;;;17.30;61.20;;;;;;5033082;28;20045;-29
2021/12/21 11:45:21;;;;;;;1.65;1.55;;;17.30;61.30;;;;;;5032640;28;20141;-29
2021/12/21 11:48:11;;;;;;;1.85;1.60;;;17.20;61.40;;;;;;5031311;28;20041;-31
2021/12/21 11:50:38;;;;;;;2.20;2.10;;;17.20;61.40;;;;;;5025845;28;20054;-33
2021/12/21 11:53:05;;;;;;;1.67;1.58;;;17.30;60.80;;;;;;5031114;28;20048;-26
2021/12/21 11:55:32;;;;;;;2.85;2.13;;;17.30;60.90;;;;;;5033455;28;20570;-26
2021/12/21 11:57:59;;;;;;;2.00;1.90;;;17.40;60.50;;;;;;5033318;28;20037;-24
2021/12/21 12:00:28;;;;;;;1.98;1.88;;;17.40;60.50;;;;;;5033345;28;20107;-32
2021/12/21 12:02:54;;;;;;;2.15;2.05;;;17.40;60.50;;;;;;5031799;28;20049;-26
2021/12/21 12:05:24;;;;;;;2.40;2.20;;;17.40;61.00;;;;;;5030631;28;20536;-28
2021/12/21 12:08:02;;;;;;;2.70;2.50;;;17.40;61.30;;;;;;5030743;28;20049;-31
2021/12/21 12:10:28;;;;;;;2.78;2.58;;;17.40;61.20;;;;;;5032382;28;20114;-27
2021/12/21 12:12:54;;;;;;;3.10;2.35;;;17.50;61.20;;;;;;5031920;28;20041;-24
2021/12/21 12:15:19;;;;;;;2.50;2.40;;;17.50;61.20;;;;;;5047951;28;20088;-29
2021/12/21 12:17:49;;;;;;;2.63;2.38;;;17.50;61.20;;;;;;5036890;28;20133;-30
2021/12/21 12:20:15;;;;;;;5.07;2.83;;;17.60;61.10;;;;;;5039379;28;20076;-29
2021/12/21 12:22:43;;;;;;;3.65;3.00;;;17.60;61.10;;;;;;5031323;28;20045;-29
2021/12/21 12:25:21;;;;;;;2.65;2.45;;;17.60;60.90;;;;;;5032288;28;20513;-28
2021/12/21 12:27:51;;;;;;;3.03;2.83;;;17.70;60.90;;;;;;5033734;28;20576;-30
2021/12/21 12:30:25;;;;;;;4.80;2.95;;;17.70;60.90;;;;;;5031664;28;20061;-28
2021/12/21 12:32:55;;;;;;;;;;;17.70;61.00;;;;;;5027342;28;20221;-30
2021/12/21 12:35:26;;;;;;;4.35;2.92;;;17.70;60.90;;;;;;5031396;28;20449;-30
2021/12/21 12:38:02;;;;;;;3.30;3.10;;;17.70;60.70;;;;;;5032202;28;20063;-32
2021/12/21 12:40:44;;;;;;;3.45;3.13;;;17.70;60.80;;;;;;5034924;28;20041;-30
2021/12/21 12:43:11;;;;;;;3.50;3.20;;;17.80;60.50;;;;;;5045068;28;20103;-24
2021/12/21 12:46:03;;;;;;;2.83;2.63;;;17.80;60.30;;;;;;5032037;28;20045;-28
2021/12/21 12:48:32;;;;;;;3.10;2.90;;;17.80;60.20;;;;;;5026990;28;20514;-26
2021/12/21 12:51:07;;;;;;;3.15;2.65;;;17.80;60.10;;;;;;5030294;27;20432;-28
2021/12/21 12:53:43;;;;;;;3.83;2.60;;;17.80;60.10;;;;;;5000713;28;20047;-30
2021/12/21 12:56:10;;;;;;;3.22;2.70;;;17.70;60.10;;;;;;4997834;28;20046;-28
2021/12/21 12:58:36;;;;;;;2.95;2.67;;;17.80;59.90;;;;;;4989273;28;20046;-30
2021/12/21 13:01:09;;;;;;;3.00;2.80;;;17.80;60.00;;;;;;5014557;28;20583;-30
2021/12/21 13:03:42;;;;;;;2.93;2.73;;;17.80;59.90;;;;;;4989257;28;20038;-30
2021/12/21 13:06:15;;;;;;;2.80;2.60;;;17.80;59.90;;;;;;5002869;28;20047;-29
2021/12/21 13:08:42;;;;;;;3.13;2.70;;;17.80;59.90;;;;;;5000397;28;20054;-30
2021/12/21 13:11:08;;;;;;;3.22;2.92;;;17.80;60.00;;;;;;5000603;28;20145;-31
2021/12/21 13:13:44;;;;;;;2.47;2.35;;;17.70;60.00;;;;;;5001583;28;20066;-30
2021/12/21 13:16:12;;;;;;;2.53;2.38;;;17.70;60.20;;;;;;5010241;28;20129;-26
2021/12/21 13:18:51;;;;;;;3.33;3.03;;;17.80;60.40;;;;;;5008226;28;20060;-30
2021/12/21 13:21:25;;;;;;;3.03;2.72;;;17.70;60.30;;;;;;5008091;28;20042;-28
2021/12/21 13:23:51;;;;;;;3.20;2.97;;;17.70;60.30;;;;;;4998585;28;20042;-28
2021/12/21 13:26:18;;;;;;;3.47;3.25;;;17.80;60.40;;;;;;5006119;28;20049;-30
2021/12/21 13:28:49;;;;;;;5.28;3.05;;;17.80;59.90;;;;;;5006857;28;20138;-28
2021/12/21 13:31:17;;;;;;;3.38;3.15;;;17.80;59.90;;;;;;5007117;28;20041;-30
2021/12/21 13:33:43;;;;;;;3.33;3.13;;;17.80;59.80;;;;;;5008531;28;20082;-31
2021/12/21 13:36:08;;;;;;;4.18;3.88;;;17.80;59.80;;;;;;5007278;28;20077;-30
2021/12/21 13:38:35;;;;;;;3.30;3.10;;;17.80;59.70;;;;;;4998741;28;20042;-27
2021/12/21 13:41:05;;;;;;;3.90;3.60;;;17.70;59.70;;;;;;5007659;28;20176;-27
2021/12/21 13:43:31;;;;;;;3.67;3.47;;;17.80;59.70;;;;;;5007471;28;20046;-31
2021/12/21 13:46:02;;;;;;;6.35;4.38;;;17.80;59.70;;;;;;5020581;28;20061;-27
2021/12/21 13:48:29;;;;;;;4.50;4.20;;;17.70;59.80;;;;;;5007361;28;20049;-33
2021/12/21 13:50:54;;;;;;;4.68;4.28;;;17.80;59.60;;;;;;5007642;28;20085;-29
2021/12/21 13:53:20;;;;;;;5.15;4.50;;;17.80;59.60;;;;;;5011636;28;20049;-27